Wetterdaten: Woche 09.04.07 - 15.04.07 (KW15)
Datum Zeit Temperatur Luftfeuchte Luftdruck Niederschlag Wind Richtung Sonnenschein UV-Strahlung Solar Taupunkt Windchill Windben
09.04.2007 00:00 6.6 C 83 % 1021.2 hPa 0.0 l/m 1.6 km/h (1 Bft) O-SO 0.00 h 0.0 UV-I 0 W/m 3.9 C 6.6 C 2.9 km/h (1 Bft)
09.04.2007 01:00 5.5 C 86 % 1021.1 hPa 0.0 l/m 1.7 km/h (1 Bft) O-SO 0.00 h 0.0 UV-I 0 W/m 3.4 C 5.5 C 2.7 km/h (1 Bft)
09.04.2007 02:00 4.8 C 88 % 1021.0 hPa 0.0 l/m 1.3 km/h (1 Bft) O-SO 0.00 h 0.0 UV-I 0 W/m 3.0 C 4.8 C 2.4 km/h (1 Bft)
09.04.2007 03:00 4.1 C 89 % 1020.8 hPa 0.0 l/m 2.0 km/h (1 Bft) O-SO 0.00 h 0.0 UV-I 0 W/m 2.6 C 4.1 C 3.3 km/h (1 Bft)
09.04.2007 04:00 3.4 C 90 % 1021.0 hPa 0.0 l/m 1.9 km/h (1 Bft) O-SO 0.00 h 0.0 UV-I 0 W/m 2.0 C 3.3 C 3.3 km/h (1 Bft)
09.04.2007 05:00 3.2 C 90 % 1021.1 hPa 0.0 l/m 0.8 km/h (0 Bft) O-SO 0.00 h 0.0 UV-I 0 W/m 1.8 C 3.2 C 2.1 km/h (1 Bft)
09.04.2007 06:00 2.6 C 93 % 1021.2 hPa 0.0 l/m 0.3 km/h (0 Bft) O-SO 0.00 h 0.0 UV-I 7 W/m 1.5 C 2.6 C 0.8 km/h (0 Bft)
09.04.2007 07:00 2.8 C 94 % 1021.6 hPa 0.0 l/m 0.2 km/h (0 Bft) O-SO 0.12 h 0.0 UV-I 42 W/m 1.9 C 2.8 C 0.5 km/h (0 Bft)
09.04.2007 08:00 4.3 C 90 % 1021.8 hPa 0.0 l/m 0.0 km/h (0 Bft) N 0.58 h 0.7 UV-I 162 W/m 2.7 C 4.3 C 0.1 km/h (0 Bft)
09.04.2007 09:00 6.8 C 83 % 1021.6 hPa 0.0 l/m 0.2 km/h (0 Bft) O 0.92 h 1.4 UV-I 319 W/m 4.1 C 6.8 C 0.8 km/h (0 Bft)
09.04.2007 10:00 10.5 C 75 % 1021.3 hPa 0.0 l/m 2.8 km/h (1 Bft) S 1.00 h 2.6 UV-I 480 W/m 6.3 C 10.5 C 5.8 km/h (2 Bft)
09.04.2007 11:00 14.0 C 64 % 1020.7 hPa 0.0 l/m 3.6 km/h (1 Bft) SO 1.00 h 3.9 UV-I 627 W/m 7.3 C 14.0 C 6.8 km/h (2 Bft)
09.04.2007 12:00 16.3 C 54 % 1019.9 hPa 0.0 l/m 6.4 km/h (2 Bft) W-SW 1.00 h 4.8 UV-I 714 W/m 7.0 C 16.3 C 10.3 km/h (2 Bft)
09.04.2007 13:00 17.7 C 46 % 1019.2 hPa 0.0 l/m 10.0 km/h (2 Bft) W 1.00 h 5.3 UV-I 745 W/m 6.0 C 17.7 C 14.8 km/h (3 Bft)
09.04.2007 14:00 18.5 C 44 % 1018.7 hPa 0.0 l/m 10.0 km/h (2 Bft) W 0.92 h 4.7 UV-I 673 W/m 6.1 C 18.5 C 15.4 km/h (3 Bft)
09.04.2007 15:00 19.4 C 40 % 1018.2 hPa 0.0 l/m 11.0 km/h (2 Bft) W 1.00 h 3.8 UV-I 644 W/m 5.3 C 19.4 C 16.8 km/h (3 Bft)
09.04.2007 16:00 19.8 C 31 % 1017.8 hPa 0.0 l/m 11.2 km/h (2 Bft) W 1.00 h 2.6 UV-I 532 W/m 2.1 C 19.8 C 17.1 km/h (3 Bft)
09.04.2007 17:00 19.8 C 29 % 1017.7 hPa 0.0 l/m 11.3 km/h (2 Bft) W 1.00 h 1.4 UV-I 372 W/m 1.4 C 19.8 C 16.7 km/h (3 Bft)
09.04.2007 18:00 19.3 C 30 % 1017.6 hPa 0.0 l/m 8.4 km/h (2 Bft) W-NW 0.98 h 0.7 UV-I 202 W/m 1.2 C 19.3 C 12.5 km/h (3 Bft)
09.04.2007 19:00 18.3 C 31 % 1018.0 hPa 0.0 l/m 5.8 km/h (2 Bft) W-NW 0.43 h 0.0 UV-I 58 W/m 0.9 C 18.3 C 8.4 km/h (2 Bft)
09.04.2007 20:00 15.6 C 41 % 1018.3 hPa 0.0 l/m 3.3 km/h (1 Bft) W-NW 0.00 h 0.0 UV-I 6 W/m 2.1 C 15.6 C 5.2 km/h (1 Bft)
09.04.2007 21:00 13.1 C 51 % 1018.9 hPa 0.0 l/m 1.7 km/h (1 Bft) O-NO 0.00 h 0.0 UV-I 0 W/m 3.0 C 13.1 C 3.4 km/h (1 Bft)
09.04.2007 22:00 10.6 C 62 % 1019.2 hPa 0.0 l/m 4.2 km/h (1 Bft) O 0.00 h 0.0 UV-I 0 W/m 3.7 C 10.6 C 5.4 km/h (1 Bft)
09.04.2007 23:00 8.7 C 71 % 1019.5 hPa 0.0 l/m 0.7 km/h (0 Bft) O 0.00 h 0.0 UV-I 0 W/m 3.8 C 8.7 C 1.8 km/h (1 Bft)
10.04.2007 00:00 7.4 C 76 % 1019.9 hPa 0.0 l/m 2.4 km/h (1 Bft) O-SO 0.00 h 0.0 UV-I 0 W/m 3.6 C 7.4 C 3.5 km/h (1 Bft)
10.04.2007 01:00 6.8 C 79 % 1019.9 hPa 0.0 l/m 1.7 km/h (1 Bft) O-SO 0.00 h 0.0 UV-I 0 W/m 3.4 C 6.7 C 2.8 km/h (1 Bft)
10.04.2007 02:00 5.9 C 82 % 1020.2 hPa 0.0 l/m 0.9 km/h (0 Bft) O 0.00 h 0.0 UV-I 0 W/m 3.1 C 5.9 C 1.5 km/h (1 Bft)
10.04.2007 03:00 5.4 C 83 % 1019.9 hPa 0.0 l/m 1.3 km/h (1 Bft) O 0.00 h 0.0 UV-I 0 W/m 2.8 C 5.4 C 2.7 km/h (1 Bft)
10.04.2007 04:00 4.8 C 85 % 1019.9 hPa 0.0 l/m 0.6 km/h (0 Bft) O 0.00 h 0.0 UV-I 0 W/m 2.5 C 4.8 C 1.3 km/h (1 Bft)
10.04.2007 05:00 3.9 C 88 % 1020.2 hPa 0.0 l/m 0.9 km/h (0 Bft) O 0.00 h 0.0 UV-I 0 W/m 2.2 C 3.9 C 1.8 km/h (1 Bft)
10.04.2007 06:00 3.2 C 90 % 1020.5 hPa 0.0 l/m 2.6 km/h (1 Bft) O 0.00 h 0.0 UV-I 6 W/m 1.7 C 3.0 C 3.5 km/h (1 Bft)
10.04.2007 07:00 3.4 C 90 % 1021.1 hPa 0.0 l/m 0.6 km/h (0 Bft) O-SO 0.00 h 0.0 UV-I 24 W/m 2.0 C 3.4 C 1.4 km/h (1 Bft)
10.04.2007 08:00 5.6 C 84 % 1021.5 hPa 0.0 l/m 0.0 km/h (0 Bft) N 0.95 h 0.7 UV-I 190 W/m 3.1 C 5.6 C 0.2 km/h (0 Bft)
10.04.2007 09:00 8.3 C 75 % 1021.4 hPa 0.0 l/m 0.1 km/h (0 Bft) O-SO 1.00 h 1.4 UV-I 355 W/m 4.2 C 8.3 C 1.1 km/h (1 Bft)
10.04.2007 10:00 11.9 C 66 % 1021.3 hPa 0.0 l/m 0.7 km/h (0 Bft) O-SO 1.00 h 2.4 UV-I 513 W/m 5.7 C 11.9 C 2.4 km/h (1 Bft)
10.04.2007 11:00 15.3 C 57 % 1021.0 hPa 0.0 l/m 2.8 km/h (1 Bft) SO 1.00 h 3.9 UV-I 641 W/m 6.8 C 15.3 C 5.2 km/h (1 Bft)
10.04.2007 12:00 18.4 C 45 % 1020.4 hPa 0.0 l/m 2.5 km/h (1 Bft) S-SO 1.00 h 4.7 UV-I 726 W/m 6.3 C 18.4 C 5.1 km/h (1 Bft)
10.04.2007 13:00 19.7 C 35 % 1020.0 hPa 0.0 l/m 5.5 km/h (1 Bft) W-SW 1.00 h 5.1 UV-I 758 W/m 3.5 C 19.7 C 8.5 km/h (2 Bft)
10.04.2007 14:00 20.6 C 30 % 1019.8 hPa 0.0 l/m 7.1 km/h (2 Bft) W-SW 1.00 h 4.8 UV-I 742 W/m 2.2 C 20.6 C 10.7 km/h (2 Bft)
10.04.2007 15:00 21.3 C 27 % 1019.2 hPa 0.0 l/m 4.9 km/h (1 Bft) W-NW 1.00 h 3.6 UV-I 657 W/m 1.7 C 21.3 C 7.7 km/h (2 Bft)
10.04.2007 16:00 21.5 C 26 % 1019.3 hPa 0.0 l/m 3.9 km/h (1 Bft) W-NW 1.00 h 2.4 UV-I 529 W/m 1.4 C 21.5 C 6.4 km/h (2 Bft)
10.04.2007 17:00 21.7 C 26 % 1019.2 hPa 0.0 l/m 4.6 km/h (1 Bft) W-NW 1.00 h 1.3 UV-I 373 W/m 1.1 C 21.7 C 6.7 km/h (2 Bft)
10.04.2007 18:00 21.0 C 26 % 1019.2 hPa 0.0 l/m 5.6 km/h (1 Bft) W-NW 1.00 h 0.7 UV-I 209 W/m 0.9 C 21.0 C 8.0 km/h (2 Bft)
10.04.2007 19:00 19.7 C 26 % 1019.4 hPa 0.0 l/m 4.4 km/h (1 Bft) W-NW 0.57 h 0.0 UV-I 63 W/m -0.1 C 19.7 C 6.7 km/h (2 Bft)
10.04.2007 20:00 17.3 C 38 % 1019.9 hPa 0.0 l/m 3.1 km/h (1 Bft) N-NO 0.00 h 0.0 UV-I 7 W/m 2.9 C 17.3 C 6.1 km/h (2 Bft)
10.04.2007 21:00 15.8 C 47 % 1020.7 hPa 0.0 l/m 3.0 km/h (1 Bft) N-NO 0.00 h 0.0 UV-I 0 W/m 4.6 C 15.8 C 6.8 km/h (2 Bft)
10.04.2007 22:00 14.7 C 54 % 1021.3 hPa 0.0 l/m 4.5 km/h (1 Bft) N-NO 0.00 h 0.0 UV-I 0 W/m 5.4 C 14.7 C 9.0 km/h (2 Bft)
10.04.2007 23:00 13.5 C 57 % 1021.7 hPa 0.0 l/m 3.2 km/h (1 Bft) N-NO 0.00 h 0.0 UV-I 0 W/m 5.2 C 13.5 C 6.9 km/h (2 Bft)
11.04.2007 00:00 12.5 C 60 % 1021.9 hPa 0.0 l/m 1.2 km/h (1 Bft) N-NW 0.00 h 0.0 UV-I 0 W/m 4.9 C 12.5 C 2.8 km/h (1 Bft)
11.04.2007 01:00 10.5 C 67 % 1021.8 hPa 0.0 l/m 0.7 km/h (0 Bft) O 0.00 h 0.0 UV-I 0 W/m 4.7 C 10.5 C 2.0 km/h (1 Bft)
11.04.2007 02:00 9.9 C 68 % 1021.7 hPa 0.0 l/m 0.6 km/h (0 Bft) O-SO 0.00 h 0.0 UV-I 0 W/m 4.3 C 9.9 C 1.4 km/h (1 Bft)
11.04.2007 03:00 8.7 C 72 % 1021.6 hPa 0.0 l/m 2.0 km/h (1 Bft) O 0.00 h 0.0 UV-I 0 W/m 4.0 C 8.7 C 3.5 km/h (1 Bft)
11.04.2007 04:00 7.6 C 76 % 1021.6 hPa 0.0 l/m 1.4 km/h (1 Bft) O 0.00 h 0.0 UV-I 0 W/m 3.7 C 7.5 C 2.8 km/h (1 Bft)
11.04.2007 05:00 7.0 C 78 % 1021.8 hPa 0.0 l/m 1.4 km/h (1 Bft) O 0.00 h 0.0 UV-I 0 W/m 3.5 C 6.9 C 2.5 km/h (1 Bft)
11.04.2007 06:00 5.8 C 84 % 1022.0 hPa 0.0 l/m 0.7 km/h (0 Bft) O 0.02 h 0.0 UV-I 8 W/m 3.2 C 5.7 C 1.6 km/h (1 Bft)
11.04.2007 07:00 5.6 C 85 % 1022.5 hPa 0.0 l/m 0.4 km/h (0 Bft) O 0.00 h 0.0 UV-I 32 W/m 3.2 C 5.6 C 1.4 km/h (1 Bft)
11.04.2007 08:00 7.6 C 80 % 1022.7 hPa 0.0 l/m 0.2 km/h (0 Bft) O 0.78 h 0.7 UV-I 185 W/m 4.3 C 7.6 C 0.8 km/h (0 Bft)
11.04.2007 09:00 10.3 C 72 % 1022.6 hPa 0.0 l/m 0.7 km/h (0 Bft) O 1.00 h 1.5 UV-I 351 W/m 5.5 C 10.3 C 2.0 km/h (1 Bft)
11.04.2007 10:00 13.9 C 59 % 1022.0 hPa 0.0 l/m 2.3 km/h (1 Bft) O 1.00 h 2.7 UV-I 511 W/m 5.9 C 13.9 C 4.9 km/h (1 Bft)
11.04.2007 11:00 16.0 C 54 % 1021.6 hPa 0.0 l/m 4.2 km/h (1 Bft) O-SO 1.00 h 4.0 UV-I 634 W/m 6.8 C 16.0 C 7.9 km/h (2 Bft)
11.04.2007 12:00 17.9 C 50 % 1020.9 hPa 0.0 l/m 8.1 km/h (2 Bft) O-SO 1.00 h 5.0 UV-I 717 W/m 7.3 C 17.9 C 12.6 km/h (3 Bft)
11.04.2007 13:00 19.6 C 45 % 1020.1 hPa 0.0 l/m 7.2 km/h (2 Bft) O-SO 1.00 h 5.4 UV-I 749 W/m 7.5 C 19.6 C 12.2 km/h (2 Bft)
11.04.2007 14:00 20.7 C 40 % 1019.6 hPa 0.0 l/m 8.4 km/h (2 Bft) O-SO 1.00 h 5.0 UV-I 727 W/m 6.4 C 20.7 C 15.0 km/h (3 Bft)
11.04.2007 15:00 21.4 C 37 % 1019.1 hPa 0.0 l/m 6.7 km/h (2 Bft) O-SO 1.00 h 3.9 UV-I 642 W/m 5.9 C 21.4 C 11.9 km/h (2 Bft)
11.04.2007 16:00 21.3 C 37 % 1018.9 hPa 0.0 l/m 10.5 km/h (2 Bft) O-SO 1.00 h 2.6 UV-I 522 W/m 6.0 C 21.3 C 16.5 km/h (3 Bft)
11.04.2007 17:00 21.4 C 36 % 1018.6 hPa 0.0 l/m 7.1 km/h (2 Bft) O-SO 1.00 h 1.4 UV-I 366 W/m 5.7 C 21.4 C 12.2 km/h (2 Bft)
11.04.2007 18:00 20.6 C 38 % 1018.6 hPa 0.0 l/m 6.5 km/h (2 Bft) O-SO 1.00 h 0.7 UV-I 201 W/m 5.9 C 20.6 C 11.1 km/h (2 Bft)
11.04.2007 19:00 19.5 C 42 % 1018.5 hPa 0.0 l/m 2.5 km/h (1 Bft) O-SO 0.25 h 0.0 UV-I 57 W/m 6.3 C 19.5 C 5.4 km/h (1 Bft)
11.04.2007 20:00 17.8 C 48 % 1018.7 hPa 0.0 l/m 1.2 km/h (1 Bft) NO 0.02 h 0.0 UV-I 6 W/m 6.6 C 17.8 C 3.6 km/h (1 Bft)
11.04.2007 21:00 16.6 C 53 % 1019.0 hPa 0.0 l/m 2.8 km/h (1 Bft) NO 0.00 h 0.0 UV-I 0 W/m 7.0 C 16.6 C 6.5 km/h (2 Bft)
11.04.2007 22:00 15.5 C 57 % 1019.2 hPa 0.0 l/m 2.3 km/h (1 Bft) N-NO 0.00 h 0.0 UV-I 0 W/m 7.0 C 15.5 C 5.5 km/h (1 Bft)
11.04.2007 23:00 13.7 C 63 % 1019.3 hPa 0.0 l/m 0.5 km/h (0 Bft) NO 0.00 h 0.0 UV-I 0 W/m 6.9 C 13.7 C 1.5 km/h (1 Bft)
12.04.2007 00:00 12.2 C 69 % 1019.4 hPa 0.0 l/m 0.4 km/h (0 Bft) SO 0.00 h 0.0 UV-I 0 W/m 6.6 C 12.2 C 1.5 km/h (1 Bft)
12.04.2007 01:00 11.0 C 74 % 1019.3 hPa 0.0 l/m 1.9 km/h (1 Bft) O 0.00 h 0.0 UV-I 0 W/m 6.5 C 11.0 C 3.1 km/h (1 Bft)
12.04.2007 02:00 9.5 C 79 % 1019.0 hPa 0.0 l/m 2.1 km/h (1 Bft) O-SO 0.00 h 0.0 UV-I 0 W/m 6.1 C 9.4 C 3.4 km/h (1 Bft)
12.04.2007 03:00 9.2 C 80 % 1018.8 hPa 0.0 l/m 1.7 km/h (1 Bft) O 0.00 h 0.0 UV-I 0 W/m 5.8 C 9.2 C 2.9 km/h (1 Bft)
12.04.2007 04:00 8.1 C 83 % 1019.0 hPa 0.0 l/m 2.1 km/h (1 Bft) O 0.00 h 0.0 UV-I 0 W/m 5.3 C 8.0 C 3.7 km/h (1 Bft)
12.04.2007 05:00 7.5 C 85 % 1019.0 hPa 0.0 l/m 2.4 km/h (1 Bft) O 0.00 h 0.0 UV-I 0 W/m 5.1 C 7.3 C 3.5 km/h (1 Bft)
12.04.2007 06:00 6.7 C 87 % 1019.5 hPa 0.0 l/m 1.0 km/h (0 Bft) O-NO 0.02 h 0.0 UV-I 8 W/m 4.7 C 6.7 C 2.4 km/h (1 Bft)
12.04.2007 07:00 7.0 C 86 % 1019.9 hPa 0.0 l/m 0.1 km/h (0 Bft) O-SO 0.00 h 0.0 UV-I 37 W/m 4.9 C 7.0 C 0.6 km/h (0 Bft)
12.04.2007 08:00 8.6 C 83 % 1020.3 hPa 0.0 l/m 0.5 km/h (0 Bft) O 0.68 h 0.7 UV-I 183 W/m 5.8 C 8.6 C 1.4 km/h (1 Bft)
12.04.2007 09:00 11.1 C 75 % 1020.1 hPa 0.0 l/m 0.2 km/h (0 Bft) O 1.00 h 1.4 UV-I 346 W/m 6.8 C 11.1 C 1.2 km/h (1 Bft)
12.04.2007 10:00 14.4 C 62 % 1019.9 hPa 0.0 l/m 1.6 km/h (1 Bft) N-NW 1.00 h 2.4 UV-I 502 W/m 7.1 C 14.4 C 3.4 km/h (1 Bft)
12.04.2007 11:00 16.9 C 56 % 1019.6 hPa 0.0 l/m 3.1 km/h (1 Bft) O-SO 1.00 h 3.7 UV-I 627 W/m 8.0 C 16.9 C 5.6 km/h (1 Bft)
12.04.2007 12:00 18.8 C 51 % 1019.4 hPa 0.0 l/m 2.7 km/h (1 Bft) W 1.00 h 4.4 UV-I 704 W/m 8.4 C 18.8 C 4.8 km/h (1 Bft)
12.04.2007 13:00 20.3 C 45 % 1019.1 hPa 0.0 l/m 2.7 km/h (1 Bft) W 1.00 h 4.6 UV-I 732 W/m 8.0 C 20.3 C 4.7 km/h (1 Bft)
12.04.2007 14:00 22.1 C 42 % 1018.6 hPa 0.0 l/m 2.9 km/h (1 Bft) W 1.00 h 4.3 UV-I 710 W/m 8.5 C 22.1 C 5.0 km/h (1 Bft)
12.04.2007 15:00 23.2 C 39 % 1018.0 hPa 0.0 l/m 3.0 km/h (1 Bft) N-NW 1.00 h 3.4 UV-I 639 W/m 8.5 C 23.2 C 5.0 km/h (1 Bft)
12.04.2007 16:00 23.6 C 32 % 1017.4 hPa 0.0 l/m 1.2 km/h (1 Bft) SO 1.00 h 2.3 UV-I 531 W/m 5.9 C 23.6 C 3.1 km/h (1 Bft)
12.04.2007 17:00 23.7 C 30 % 1017.3 hPa 0.0 l/m 1.6 km/h (1 Bft) S-SO 1.00 h 1.2 UV-I 374 W/m 5.3 C 23.7 C 3.3 km/h (1 Bft)
12.04.2007 18:00 23.5 C 29 % 1016.9 hPa 0.0 l/m 1.2 km/h (1 Bft) W 0.33 h 0.6 UV-I 151 W/m 4.4 C 23.5 C 2.5 km/h (1 Bft)
12.04.2007 19:00 21.3 C 38 % 1017.2 hPa 0.0 l/m 2.1 km/h (1 Bft) O-SO 0.00 h 0.0 UV-I 44 W/m 6.3 C 21.3 C 3.0 km/h (1 Bft)
12.04.2007 20:00 17.4 C 59 % 1017.5 hPa 0.0 l/m 2.8 km/h (1 Bft) O-SO 0.00 h 0.0 UV-I 6 W/m 9.2 C 17.4 C 4.2 km/h (1 Bft)
12.04.2007 21:00 16.3 C 61 % 1017.9 hPa 0.0 l/m 0.2 km/h (0 Bft) O-SO 0.00 h 0.0 UV-I 0 W/m 8.8 C 16.3 C 0.8 km/h (0 Bft)
12.04.2007 22:00 14.7 C 66 % 1018.0 hPa 0.0 l/m 1.2 km/h (1 Bft) O-SO 0.00 h 0.0 UV-I 0 W/m 8.5 C 14.7 C 2.2 km/h (1 Bft)
12.04.2007 23:00 14.2 C 65 % 1017.7 hPa 0.0 l/m 0.8 km/h (0 Bft) SO 0.00 h 0.0 UV-I 0 W/m 7.8 C 14.2 C 2.1 km/h (1 Bft)
13.04.2007 00:00 13.8 C 65 % 1017.2 hPa 0.0 l/m 0.6 km/h (0 Bft) N-NO 0.00 h 0.0 UV-I 0 W/m 7.4 C 13.8 C 2.1 km/h (1 Bft)
13.04.2007 01:00 13.1 C 67 % 1017.1 hPa 0.0 l/m 0.4 km/h (0 Bft) N-NO 0.00 h 0.0 UV-I 0 W/m 7.1 C 13.1 C 1.6 km/h (1 Bft)
13.04.2007 02:00 12.2 C 72 % 1016.6 hPa 0.0 l/m 0.7 km/h (0 Bft) O 0.00 h 0.0 UV-I 0 W/m 7.2 C 12.2 C 1.8 km/h (1 Bft)
13.04.2007 03:00 10.9 C 79 % 1016.4 hPa 0.0 l/m 0.3 km/h (0 Bft) O 0.00 h 0.0 UV-I 0 W/m 7.4 C 10.9 C 1.1 km/h (1 Bft)
13.04.2007 04:00 10.2 C 81 % 1016.5 hPa 0.0 l/m 0.5 km/h (0 Bft) O 0.00 h 0.0 UV-I 0 W/m 7.1 C 10.2 C 1.5 km/h (1 Bft)
13.04.2007 05:00 9.2 C 86 % 1016.6 hPa 0.0 l/m 0.1 km/h (0 Bft) O 0.00 h 0.0 UV-I 0 W/m 6.9 C 9.2 C 0.7 km/h (0 Bft)
13.04.2007 06:00 8.6 C 88 % 1016.7 hPa 0.0 l/m 0.5 km/h (0 Bft) O 0.03 h 0.0 UV-I 8 W/m 6.8 C 8.6 C 1.2 km/h (1 Bft)
13.04.2007 07:00 8.7 C 88 % 1017.0 hPa 0.0 l/m 0.1 km/h (0 Bft) O 0.00 h 0.0 UV-I 39 W/m 6.8 C 8.7 C 0.6 km/h (0 Bft)
13.04.2007 08:00 10.1 C 85 % 1017.4 hPa 0.0 l/m 0.2 km/h (0 Bft) O 0.15 h 0.7 UV-I 162 W/m 7.7 C 10.1 C 1.2 km/h (1 Bft)
13.04.2007 09:00 12.7 C 76 % 1017.5 hPa 0.0 l/m 0.3 km/h (0 Bft) O 0.98 h 1.4 UV-I 355 W/m 8.6 C 12.7 C 1.5 km/h (1 Bft)
13.04.2007 10:00 15.9 C 66 % 1017.5 hPa 0.0 l/m 2.8 km/h (1 Bft) N 1.00 h 2.6 UV-I 518 W/m 9.5 C 15.9 C 4.6 km/h (1 Bft)
13.04.2007 11:00 18.9 C 53 % 1017.1 hPa 0.0 l/m 2.4 km/h (1 Bft) W-NW 1.00 h 3.8 UV-I 633 W/m 9.1 C 18.9 C 4.4 km/h (1 Bft)
13.04.2007 12:00 21.4 C 42 % 1016.5 hPa 0.0 l/m 1.7 km/h (1 Bft) W-NW 1.00 h 4.7 UV-I 705 W/m 8.0 C 21.4 C 3.7 km/h (1 Bft)
13.04.2007 13:00 23.2 C 36 % 1015.9 hPa 0.0 l/m 2.4 km/h (1 Bft) W-SW 1.00 h 5.0 UV-I 720 W/m 7.1 C 23.2 C 4.3 km/h (1 Bft)
13.04.2007 14:00 24.2 C 31 % 1015.3 hPa 0.0 l/m 2.9 km/h (1 Bft) O-SO 1.00 h 4.6 UV-I 694 W/m 6.2 C 24.2 C 5.1 km/h (1 Bft)
13.04.2007 15:00 25.3 C 27 % 1015.2 hPa 0.0 l/m 3.1 km/h (1 Bft) W 1.00 h 3.7 UV-I 637 W/m 4.8 C 25.3 C 5.5 km/h (1 Bft)
13.04.2007 16:00 25.8 C 23 % 1014.9 hPa 0.0 l/m 3.0 km/h (1 Bft) W-NW 1.00 h 2.4 UV-I 508 W/m 3.0 C 25.8 C 4.9 km/h (1 Bft)
13.04.2007 17:00 25.6 C 23 % 1014.7 hPa 0.0 l/m 3.4 km/h (1 Bft) O-SO 0.75 h 1.2 UV-I 328 W/m 3.0 C 25.6 C 6.3 km/h (2 Bft)
13.04.2007 18:00 24.4 C 25 % 1014.9 hPa 0.0 l/m 1.6 km/h (1 Bft) N-NO 0.18 h 0.6 UV-I 129 W/m 3.0 C 24.4 C 4.0 km/h (1 Bft)
13.04.2007 19:00 21.9 C 34 % 1015.1 hPa 0.0 l/m 1.4 km/h (1 Bft) O 0.00 h 0.0 UV-I 44 W/m 5.3 C 21.9 C 3.2 km/h (1 Bft)
13.04.2007 20:00 18.9 C 45 % 1015.3 hPa 0.0 l/m 2.9 km/h (1 Bft) SO 0.00 h 0.0 UV-I 6 W/m 6.4 C 18.9 C 3.9 km/h (1 Bft)
13.04.2007 21:00 16.1 C 59 % 1015.7 hPa 0.0 l/m 2.5 km/h (1 Bft) SO 0.00 h 0.0 UV-I 0 W/m 8.0 C 16.1 C 3.6 km/h (1 Bft)
13.04.2007 22:00 14.5 C 66 % 1016.1 hPa 0.0 l/m 2.9 km/h (1 Bft) O 0.00 h 0.0 UV-I 0 W/m 8.2 C 14.5 C 4.1 km/h (1 Bft)
13.04.2007 23:00 13.5 C 67 % 1016.0 hPa 0.0 l/m 1.8 km/h (1 Bft) O 0.00 h 0.0 UV-I 0 W/m 7.5 C 13.5 C 3.2 km/h (1 Bft)
14.04.2007 00:00 12.8 C 68 % 1016.0 hPa 0.0 l/m 2.8 km/h (1 Bft) O 0.00 h 0.0 UV-I 0 W/m 7.1 C 12.8 C 3.9 km/h (1 Bft)
14.04.2007 01:00 11.6 C 73 % 1016.2 hPa 0.0 l/m 2.7 km/h (1 Bft) O 0.00 h 0.0 UV-I 0 W/m 7.0 C 11.6 C 3.8 km/h (1 Bft)
14.04.2007 02:00 11.0 C 76 % 1016.4 hPa 0.0 l/m 2.6 km/h (1 Bft) O 0.00 h 0.0 UV-I 0 W/m 6.9 C 11.0 C 3.7 km/h (1 Bft)
14.04.2007 03:00 9.7 C 82 % 1016.6 hPa 0.0 l/m 2.0 km/h (1 Bft) O 0.00 h 0.0 UV-I 0 W/m 6.7 C 9.6 C 2.9 km/h (1 Bft)
14.04.2007 04:00 9.2 C 83 % 1016.9 hPa 0.0 l/m 0.8 km/h (0 Bft) O 0.00 h 0.0 UV-I 0 W/m 6.5 C 9.2 C 1.5 km/h (1 Bft)
14.04.2007 05:00 8.8 C 84 % 1017.1 hPa 0.0 l/m 0.4 km/h (0 Bft) O 0.00 h 0.0 UV-I 0 W/m 6.3 C 8.8 C 1.1 km/h (1 Bft)
14.04.2007 06:00 7.9 C 88 % 1017.8 hPa 0.0 l/m 1.7 km/h (1 Bft) O-SO 0.05 h 0.0 UV-I 11 W/m 6.1 C 7.8 C 2.4 km/h (1 Bft)
14.04.2007 07:00 8.2 C 89 % 1018.6 hPa 0.0 l/m 0.5 km/h (0 Bft) O 0.07 h 0.0 UV-I 45 W/m 6.4 C 8.2 C 1.2 km/h (1 Bft)
14.04.2007 08:00 10.4 C 82 % 1019.1 hPa 0.0 l/m 0.5 km/h (0 Bft) O 1.00 h 0.8 UV-I 207 W/m 7.5 C 10.4 C 1.5 km/h (1 Bft)
14.04.2007 09:00 13.2 C 71 % 1019.0 hPa 0.0 l/m 0.1 km/h (0 Bft) O 1.00 h 1.6 UV-I 376 W/m 7.9 C 13.2 C 1.1 km/h (1 Bft)
14.04.2007 10:00 16.3 C 65 % 1019.0 hPa 0.0 l/m 1.4 km/h (1 Bft) N-NW 1.00 h 2.8 UV-I 534 W/m 9.6 C 16.3 C 2.7 km/h (1 Bft)
14.04.2007 11:00 19.0 C 55 % 1018.7 hPa 0.0 l/m 2.6 km/h (1 Bft) NW 1.00 h 4.1 UV-I 654 W/m 9.7 C 19.0 C 4.4 km/h (1 Bft)
14.04.2007 12:00 21.4 C 45 % 1018.2 hPa 0.0 l/m 3.4 km/h (1 Bft) NW 1.00 h 5.1 UV-I 735 W/m 8.8 C 21.4 C 5.3 km/h (1 Bft)
14.04.2007 13:00 23.5 C 35 % 1017.6 hPa 0.0 l/m 4.0 km/h (1 Bft) W-NW 1.00 h 5.4 UV-I 759 W/m 7.2 C 23.5 C 5.9 km/h (2 Bft)
14.04.2007 14:00 24.8 C 28 % 1017.2 hPa 0.0 l/m 5.0 km/h (1 Bft) O-SO 1.00 h 5.0 UV-I 737 W/m 4.8 C 24.8 C 8.0 km/h (2 Bft)
14.04.2007 15:00 25.5 C 26 % 1016.9 hPa 0.0 l/m 6.1 km/h (2 Bft) O-SO 1.00 h 4.0 UV-I 664 W/m 4.8 C 25.5 C 9.9 km/h (2 Bft)
14.04.2007 16:00 25.5 C 27 % 1016.7 hPa 0.0 l/m 7.1 km/h (2 Bft) O-SO 1.00 h 2.6 UV-I 535 W/m 5.2 C 25.5 C 11.5 km/h (2 Bft)
14.04.2007 17:00 25.7 C 26 % 1016.7 hPa 0.0 l/m 4.7 km/h (1 Bft) O-SO 1.00 h 1.4 UV-I 385 W/m 4.6 C 25.7 C 7.6 km/h (2 Bft)
14.04.2007 18:00 25.3 C 25 % 1017.0 hPa 0.0 l/m 3.3 km/h (1 Bft) O-SO 1.00 h 0.7 UV-I 217 W/m 3.6 C 25.3 C 6.0 km/h (2 Bft)
14.04.2007 19:00 23.9 C 28 % 1017.2 hPa 0.0 l/m 1.3 km/h (1 Bft) O-SO 0.32 h 0.0 UV-I 62 W/m 4.2 C 23.9 C 3.0 km/h (1 Bft)
14.04.2007 20:00 21.2 C 34 % 1017.6 hPa 0.0 l/m 1.0 km/h (0 Bft) O-SO 0.02 h 0.0 UV-I 8 W/m 4.5 C 21.2 C 2.2 km/h (1 Bft)
14.04.2007 21:00 18.3 C 47 % 1018.5 hPa 0.0 l/m 0.1 km/h (0 Bft) O 0.00 h 0.0 UV-I 0 W/m 6.8 C 18.3 C 0.9 km/h (0 Bft)
14.04.2007 22:00 16.6 C 54 % 1018.8 hPa 0.0 l/m 1.0 km/h (0 Bft) O 0.00 h 0.0 UV-I 0 W/m 7.3 C 16.6 C 2.6 km/h (1 Bft)
14.04.2007 23:00 15.5 C 60 % 1019.0 hPa 0.0 l/m 2.2 km/h (1 Bft) O-NO 0.00 h 0.0 UV-I 0 W/m 7.7 C 15.5 C 3.8 km/h (1 Bft)
15.04.2007 00:00 13.5 C 70 % 1019.3 hPa 0.0 l/m 2.8 km/h (1 Bft) O 0.00 h 0.0 UV-I 0 W/m 8.1 C 13.5 C 4.0 km/h (1 Bft)
15.04.2007 01:00 12.1 C 77 % 1019.5 hPa 0.0 l/m 1.3 km/h (1 Bft) O 0.00 h 0.0 UV-I 0 W/m 8.1 C 12.1 C 2.5 km/h (1 Bft)
15.04.2007 02:00 11.6 C 78 % 1019.4 hPa 0.0 l/m 1.8 km/h (1 Bft) O 0.00 h 0.0 UV-I 0 W/m 7.8 C 11.6 C 2.9 km/h (1 Bft)
15.04.2007 03:00 10.5 C 81 % 1019.6 hPa 0.0 l/m 0.8 km/h (0 Bft) O 0.00 h 0.0 UV-I 0 W/m 7.4 C 10.5 C 1.5 km/h (1 Bft)
15.04.2007 04:00 9.4 C 85 % 1020.1 hPa 0.0 l/m 0.2 km/h (0 Bft) O 0.00 h 0.0 UV-I 0 W/m 7.0 C 9.4 C 0.5 km/h (0 Bft)
15.04.2007 05:00 8.9 C 86 % 1020.3 hPa 0.0 l/m 0.8 km/h (0 Bft) O 0.00 h 0.0 UV-I 0 W/m 6.7 C 8.9 C 1.7 km/h (1 Bft)
15.04.2007 06:00 8.4 C 87 % 1020.6 hPa 0.0 l/m 0.2 km/h (0 Bft) O 0.00 h 0.0 UV-I 9 W/m 6.3 C 8.4 C 0.9 km/h (0 Bft)
15.04.2007 07:00 8.3 C 87 % 1021.2 hPa 0.0 l/m 0.2 km/h (0 Bft) O 0.08 h 0.0 UV-I 37 W/m 6.2 C 8.3 C 0.9 km/h (0 Bft)
15.04.2007 08:00 10.4 C 81 % 1021.5 hPa 0.0 l/m 0.2 km/h (0 Bft) O 1.00 h 0.7 UV-I 217 W/m 7.3 C 10.4 C 0.5 km/h (0 Bft)
15.04.2007 09:00 13.2 C 71 % 1021.3 hPa 0.0 l/m 0.1 km/h (0 Bft) O 1.00 h 1.4 UV-I 384 W/m 7.9 C 13.2 C 0.8 km/h (0 Bft)
15.04.2007 10:00 17.0 C 56 % 1020.9 hPa 0.0 l/m 1.5 km/h (1 Bft) O-NO 1.00 h 2.6 UV-I 539 W/m 8.0 C 17.0 C 3.3 km/h (1 Bft)
15.04.2007 11:00 20.2 C 48 % 1020.3 hPa 0.0 l/m 4.9 km/h (1 Bft) O-SO 1.00 h 4.0 UV-I 659 W/m 8.7 C 20.2 C 7.6 km/h (2 Bft)
15.04.2007 12:00 21.9 C 44 % 1019.7 hPa 0.0 l/m 3.9 km/h (1 Bft) O-SO 1.00 h 4.9 UV-I 737 W/m 9.3 C 21.9 C 6.8 km/h (2 Bft)
15.04.2007 13:00 23.3 C 41 % 1019.2 hPa 0.0 l/m 4.2 km/h (1 Bft) O-SO 1.00 h 5.1 UV-I 763 W/m 9.5 C 23.3 C 7.0 km/h (2 Bft)
15.04.2007 14:00 24.7 C 38 % 1018.8 hPa 0.0 l/m 3.8 km/h (1 Bft) SO 1.00 h 4.7 UV-I 740 W/m 9.3 C 24.7 C 6.4 km/h (2 Bft)
15.04.2007 15:00 25.4 C 33 % 1018.2 hPa 0.0 l/m 7.6 km/h (2 Bft) O-SO 1.00 h 3.8 UV-I 665 W/m 7.8 C 25.4 C 11.8 km/h (2 Bft)
15.04.2007 16:00 25.7 C 30 % 1017.7 hPa 0.0 l/m 7.7 km/h (2 Bft) O-SO 1.00 h 2.5 UV-I 543 W/m 6.8 C 25.7 C 12.2 km/h (2 Bft)
15.04.2007 17:00 26.1 C 28 % 1017.5 hPa 0.0 l/m 6.3 km/h (2 Bft) O-SO 1.00 h 1.4 UV-I 393 W/m 5.8 C 26.1 C 10.4 km/h (2 Bft)
15.04.2007 18:00 25.1 C 29 % 1017.6 hPa 0.0 l/m 7.5 km/h (2 Bft) O-SO 1.00 h 0.6 UV-I 224 W/m 5.8 C 25.1 C 12.1 km/h (2 Bft)
15.04.2007 19:00 23.8 C 32 % 1017.9 hPa 0.0 l/m 2.7 km/h (1 Bft) O-SO 0.38 h 0.0 UV-I 67 W/m 6.2 C 23.8 C 5.5 km/h (1 Bft)
15.04.2007 20:00 21.6 C 40 % 1018.4 hPa 0.0 l/m 1.8 km/h (1 Bft) N-NO 0.00 h 0.0 UV-I 8 W/m 7.3 C 21.6 C 4.2 km/h (1 Bft)
15.04.2007 21:00 19.3 C 44 % 1019.2 hPa 0.0 l/m 1.0 km/h (0 Bft) N-NO 0.00 h 0.0 UV-I 0 W/m 6.5 C 19.3 C 3.0 km/h (1 Bft)
15.04.2007 22:00 16.6 C 53 % 1019.2 hPa 0.0 l/m 0.2 km/h (0 Bft) NO 0.00 h 0.0 UV-I 0 W/m 6.8 C 16.6 C 1.1 km/h (1 Bft)
15.04.2007 23:00 14.9 C 55 % 1019.5 hPa 0.0 l/m 0.4 km/h (0 Bft) NO 0.00 h 0.0 UV-I 0 W/m 5.9 C 14.9 C 1.5 km/h (1 Bft)
Min-Datum _ 09.04.07 13.04.07 13.04.07 - 09.04.07 - - - - 10.04.07 10.04.07 09.04.07
_ Min-Zeit 05:50 16:30 16:30 - 00:22 - - - - 19:28 06:51 00:28
Minimum _ 2.3 C 20 % 1014.7 hPa - 0.0 km/h (0 Bft) - - - - -1.2 C 1.1 C 0.0 km/h (0 Bft)
Max-Datum _ 13.04.07 09.04.07 11.04.07 09.04.07 09.04.07 - 09.04.07 14.04.07 13.04.07 15.04.07 13.04.07 09.04.07
_ Max-Zeit 17:01 06:26 07:45 00:00 15:26 - 07:01 13:18 13:26 13:03 17:01 17:20
Maximum _ 26.8 C 94 % 1022.7 hPa 0.0 l/m 21.4 km/h
W (4 Bft)
- 0.02 h 5.6 UV-I 777 W/m 11.5 C 26.8 C 29.5 km/h
W (5 Bft)
Durchschnitt _ 14.8 C 59 % 1019.0 hPa #0.0 l/m 2.6 km/h (1 Bft) O-SO #75:35 h 2.9 UV-I 382 W/m 5.7 C 14.8 C 4.6 km/h (1 Bft)
© Kaiko 2007